sensor_id;sensor_type;location;lat;lon;timestamp;temperature;humidity
31038;DHT22;17702;47.590;7.666;2023-06-01T00:00:29;15.90;97.60
31038;DHT22;17702;47.590;7.666;2023-06-01T00:02:55;15.90;97.40
31038;DHT22;17702;47.590;7.666;2023-06-01T00:05:20;15.80;98.00
31038;DHT22;17702;47.590;7.666;2023-06-01T00:07:46;15.80;97.80
31038;DHT22;17702;47.590;7.666;2023-06-01T00:10:12;15.80;97.70
31038;DHT22;17702;47.590;7.666;2023-06-01T00:12:37;15.80;97.50
31038;DHT22;17702;47.590;7.666;2023-06-01T00:15:03;15.80;97.70
31038;DHT22;17702;47.590;7.666;2023-06-01T00:17:28;15.70;98.00
31038;DHT22;17702;47.590;7.666;2023-06-01T00:19:56;15.60;98.40
31038;DHT22;17702;47.590;7.666;2023-06-01T00:22:21;15.70;98.50
31038;DHT22;17702;47.590;7.666;2023-06-01T00:24:49;15.60;98.20
31038;DHT22;17702;47.590;7.666;2023-06-01T00:27:15;15.50;99.20
31038;DHT22;17702;47.590;7.666;2023-06-01T00:29:40;15.60;99.00
31038;DHT22;17702;47.590;7.666;2023-06-01T00:32:06;15.60;99.20
31038;DHT22;17702;47.590;7.666;2023-06-01T00:34:31;15.60;99.20
31038;DHT22;17702;47.590;7.666;2023-06-01T00:36:57;15.60;98.80
31038;DHT22;17702;47.590;7.666;2023-06-01T00:39:22;15.60;98.80
31038;DHT22;17702;47.590;7.666;2023-06-01T00:41:48;15.50;98.80
31038;DHT22;17702;47.590;7.666;2023-06-01T00:44:13;15.50;98.70
31038;DHT22;17702;47.590;7.666;2023-06-01T00:46:39;15.40;98.70
31038;DHT22;17702;47.590;7.666;2023-06-01T00:49:04;15.40;98.90
31038;DHT22;17702;47.590;7.666;2023-06-01T00:51:31;15.40;99.20
31038;DHT22;17702;47.590;7.666;2023-06-01T00:53:58;15.40;99.20
31038;DHT22;17702;47.590;7.666;2023-06-01T00:56:24;15.30;99.30
31038;DHT22;17702;47.590;7.666;2023-06-01T00:58:50;15.30;99.20
31038;DHT22;17702;47.590;7.666;2023-06-01T01:01:15;15.30;99.70
31038;DHT22;17702;47.590;7.666;2023-06-01T01:03:48;15.20;99.90
31038;DHT22;17702;47.590;7.666;2023-06-01T01:06:17;15.20;99.70
31038;DHT22;17702;47.590;7.666;2023-06-01T01:11:18;15.30;99.10
31038;DHT22;17702;47.590;7.666;2023-06-01T01:13:50;15.30;99.40
31038;DHT22;17702;47.590;7.666;2023-06-01T01:16:25;15.30;99.30
31038;DHT22;17702;47.590;7.666;2023-06-01T01:19:18;15.30;99.80
31038;DHT22;17702;47.590;7.666;2023-06-01T01:21:59;15.20;99.70
31038;DHT22;17702;47.590;7.666;2023-06-01T01:24:34;15.00;99.90
31038;DHT22;17702;47.590;7.666;2023-06-01T01:29:40;15.00;99.90
31038;DHT22;17702;47.590;7.666;2023-06-01T01:32:06;15.00;99.90
31038;DHT22;17702;47.590;7.666;2023-06-01T01:34:33;15.00;99.90
31038;DHT22;17702;47.590;7.666;2023-06-01T01:36:59;15.00;99.90
31038;DHT22;17702;47.590;7.666;2023-06-01T01:39:25;15.00;99.90
31038;DHT22;17702;47.590;7.666;2023-06-01T01:41:51;15.00;99.90
31038;DHT22;17702;47.590;7.666;2023-06-01T01:44:16;15.00;99.90
31038;DHT22;17702;47.590;7.666;2023-06-01T01:49:43;15.00;99.90
31038;DHT22;17702;47.590;7.666;2023-06-01T01:52:17;15.00;99.70
31038;DHT22;17702;47.590;7.666;2023-06-01T01:54:44;15.10;99.40
31038;DHT22;17702;47.590;7.666;2023-06-01T01:57:10;15.00;99.70
31038;DHT22;17702;47.590;7.666;2023-06-01T01:59:37;15.00;99.90
31038;DHT22;17702;47.590;7.666;2023-06-01T02:02:03;14.90;99.90
31038;DHT22;17702;47.590;7.666;2023-06-01T02:04:29;14.90;99.70
31038;DHT22;17702;47.590;7.666;2023-06-01T02:06:55;14.90;99.90
31038;DHT22;17702;47.590;7.666;2023-06-01T02:09:21;14.90;99.70
31038;DHT22;17702;47.590;7.666;2023-06-01T02:11:46;14.90;99.60
31038;DHT22;17702;47.590;7.666;2023-06-01T02:14:12;14.80;99.90
31038;DHT22;17702;47.590;7.666;2023-06-01T02:16:37;14.80;99.90
31038;DHT22;17702;47.590;7.666;2023-06-01T02:19:03;14.80;99.90
31038;DHT22;17702;47.590;7.666;2023-06-01T02:21:28;14.70;99.90
31038;DHT22;17702;47.590;7.666;2023-06-01T02:23:54;14.70;99.90
31038;DHT22;17702;47.590;7.666;2023-06-01T02:26:20;14.70;99.90
31038;DHT22;17702;47.590;7.666;2023-06-01T02:28:46;14.70;99.90
31038;DHT22;17702;47.590;7.666;2023-06-01T02:31:12;14.80;99.90
31038;DHT22;17702;47.590;7.666;2023-06-01T02:33:38;14.70;99.90
31038;DHT22;17702;47.590;7.666;2023-06-01T02:36:03;14.70;99.90
31038;DHT22;17702;47.590;7.666;2023-06-01T02:38:30;14.50;99.90
31038;DHT22;17702;47.590;7.666;2023-06-01T02:40:55;14.50;99.90
31038;DHT22;17702;47.590;7.666;2023-06-01T02:43:21;14.40;99.90
31038;DHT22;17702;47.590;7.666;2023-06-01T02:45:46;14.40;99.90
31038;DHT22;17702;47.590;7.666;2023-06-01T02:48:12;14.40;99.90
31038;DHT22;17702;47.590;7.666;2023-06-01T02:50:38;14.30;99.90
31038;DHT22;17702;47.590;7.666;2023-06-01T02:53:03;14.30;99.90
31038;DHT22;17702;47.590;7.666;2023-06-01T02:55:30;14.20;99.90
31038;DHT22;17702;47.590;7.666;2023-06-01T02:57:55;14.20;99.90
31038;DHT22;17702;47.590;7.666;2023-06-01T03:00:21;14.10;99.90
31038;DHT22;17702;47.590;7.666;2023-06-01T03:02:47;14.10;99.90
31038;DHT22;17702;47.590;7.666;2023-06-01T03:05:13;14.00;99.90
31038;DHT22;17702;47.590;7.666;2023-06-01T03:07:46;13.90;99.90
31038;DHT22;17702;47.590;7.666;2023-06-01T03:10:12;13.90;99.90
31038;DHT22;17702;47.590;7.666;2023-06-01T03:12:37;13.80;99.90
31038;DHT22;17702;47.590;7.666;2023-06-01T03:15:03;13.80;99.90
31038;DHT22;17702;47.590;7.666;2023-06-01T03:17:30;13.80;99.90
31038;DHT22;17702;47.590;7.666;2023-06-01T03:19:55;13.80;99.90
31038;DHT22;17702;47.590;7.666;2023-06-01T03:22:21;13.80;99.90
31038;DHT22;17702;47.590;7.666;2023-06-01T03:24:47;13.80;99.90
31038;DHT22;17702;47.590;7.666;2023-06-01T03:27:16;13.80;99.90
31038;DHT22;17702;47.590;7.666;2023-06-01T03:29:41;13.80;99.90
31038;DHT22;17702;47.590;7.666;2023-06-01T03:32:07;13.80;99.90
31038;DHT22;17702;47.590;7.666;2023-06-01T03:34:32;13.80;99.90
31038;DHT22;17702;47.590;7.666;2023-06-01T03:37:02;13.80;99.90
31038;DHT22;17702;47.590;7.666;2023-06-01T03:39:29;13.80;99.90
31038;DHT22;17702;47.590;7.666;2023-06-01T03:41:55;13.70;99.90
31038;DHT22;17702;47.590;7.666;2023-06-01T03:44:20;13.70;99.90
31038;DHT22;17702;47.590;7.666;2023-06-01T03:46:46;13.70;99.90
31038;DHT22;17702;47.590;7.666;2023-06-01T03:49:11;13.60;99.90
31038;DHT22;17702;47.590;7.666;2023-06-01T03:51:37;13.60;99.90
31038;DHT22;17702;47.590;7.666;2023-06-01T03:54:03;13.60;99.90
31038;DHT22;17702;47.590;7.666;2023-06-01T03:56:29;13.70;99.90
31038;DHT22;17702;47.590;7.666;2023-06-01T03:58:55;13.70;99.90
31038;DHT22;17702;47.590;7.666;2023-06-01T04:01:20;13.70;99.90
31038;DHT22;17702;47.590;7.666;2023-06-01T04:03:47;13.70;99.90
31038;DHT22;17702;47.590;7.666;2023-06-01T04:06:14;13.70;99.90
31038;DHT22;17702;47.590;7.666;2023-06-01T04:08:45;13.70;99.90
31038;DHT22;17702;47.590;7.666;2023-06-01T04:11:15;13.70;99.90
31038;DHT22;17702;47.590;7.666;2023-06-01T04:13:41;13.70;99.90
31038;DHT22;17702;47.590;7.666;2023-06-01T04:16:06;13.70;99.90
31038;DHT22;17702;47.590;7.666;2023-06-01T04:18:32;13.70;99.90
31038;DHT22;17702;47.590;7.666;2023-06-01T04:20:57;13.70;99.90
31038;DHT22;17702;47.590;7.666;2023-06-01T04:23:23;13.80;99.90
31038;DHT22;17702;47.590;7.666;2023-06-01T04:25:48;13.80;99.90
31038;DHT22;17702;47.590;7.666;2023-06-01T04:28:17;13.80;99.90
31038;DHT22;17702;47.590;7.666;2023-06-01T04:30:43;13.80;99.90
31038;DHT22;17702;47.590;7.666;2023-06-01T04:33:09;13.90;99.90
31038;DHT22;17702;47.590;7.666;2023-06-01T04:35:35;13.90;99.90
31038;DHT22;17702;47.590;7.666;2023-06-01T04:38:02;13.90;99.90
31038;DHT22;17702;47.590;7.666;2023-06-01T04:40:28;13.90;99.90
31038;DHT22;17702;47.590;7.666;2023-06-01T04:42:53;14.00;99.90
31038;DHT22;17702;47.590;7.666;2023-06-01T04:45:22;13.90;99.90
31038;DHT22;17702;47.590;7.666;2023-06-01T04:47:48;14.00;99.90
31038;DHT22;17702;47.590;7.666;2023-06-01T04:50:15;14.00;99.90
31038;DHT22;17702;47.590;7.666;2023-06-01T04:52:41;14.00;99.90
31038;DHT22;17702;47.590;7.666;2023-06-01T04:55:07;14.10;99.90
31038;DHT22;17702;47.590;7.666;2023-06-01T04:57:33;14.10;99.90
31038;DHT22;17702;47.590;7.666;2023-06-01T05:00:00;14.10;99.90
31038;DHT22;17702;47.590;7.666;2023-06-01T05:02:25;14.10;99.90
31038;DHT22;17702;47.590;7.666;2023-06-01T05:04:51;14.20;99.90
31038;DHT22;17702;47.590;7.666;2023-06-01T05:07:17;14.30;99.90
31038;DHT22;17702;47.590;7.666;2023-06-01T05:09:42;14.40;99.90
31038;DHT22;17702;47.590;7.666;2023-06-01T05:12:08;14.60;99.90
31038;DHT22;17702;47.590;7.666;2023-06-01T05:14:33;14.70;99.90
31038;DHT22;17702;47.590;7.666;2023-06-01T05:16:59;14.80;99.90
31038;DHT22;17702;47.590;7.666;2023-06-01T05:19:25;14.90;99.90
31038;DHT22;17702;47.590;7.666;2023-06-01T05:21:50;15.00;99.90
31038;DHT22;17702;47.590;7.666;2023-06-01T05:24:16;15.10;99.90
31038;DHT22;17702;47.590;7.666;2023-06-01T05:26:41;15.20;99.90
31038;DHT22;17702;47.590;7.666;2023-06-01T05:29:07;15.20;99.90
31038;DHT22;17702;47.590;7.666;2023-06-01T05:31:32;15.20;99.90
31038;DHT22;17702;47.590;7.666;2023-06-01T05:33:58;15.30;99.90
31038;DHT22;17702;47.590;7.666;2023-06-01T05:36:23;15.50;99.90
31038;DHT22;17702;47.590;7.666;2023-06-01T05:38:49;15.60;99.90
31038;DHT22;17702;47.590;7.666;2023-06-01T05:41:14;15.70;99.90
31038;DHT22;17702;47.590;7.666;2023-06-01T05:43:40;15.90;99.90
31038;DHT22;17702;47.590;7.666;2023-06-01T05:46:06;15.90;99.90
31038;DHT22;17702;47.590;7.666;2023-06-01T05:48:31;16.00;99.90
31038;DHT22;17702;47.590;7.666;2023-06-01T05:50:57;16.20;99.90
31038;DHT22;17702;47.590;7.666;2023-06-01T05:53:22;16.30;99.90
31038;DHT22;17702;47.590;7.666;2023-06-01T05:55:52;16.40;99.90
31038;DHT22;17702;47.590;7.666;2023-06-01T05:58:18;16.60;99.90
31038;DHT22;17702;47.590;7.666;2023-06-01T06:00:43;16.70;99.90
31038;DHT22;17702;47.590;7.666;2023-06-01T06:03:09;16.80;99.90
31038;DHT22;17702;47.590;7.666;2023-06-01T06:05:34;16.90;99.90
31038;DHT22;17702;47.590;7.666;2023-06-01T06:08:00;17.00;99.00
31038;DHT22;17702;47.590;7.666;2023-06-01T06:10:26;17.00;98.70
31038;DHT22;17702;47.590;7.666;2023-06-01T06:12:51;17.00;98.40
31038;DHT22;17702;47.590;7.666;2023-06-01T06:15:17;17.10;98.70
31038;DHT22;17702;47.590;7.666;2023-06-01T06:17:43;17.10;97.50
31038;DHT22;17702;47.590;7.666;2023-06-01T06:20:08;17.30;98.10
31038;DHT22;17702;47.590;7.666;2023-06-01T06:22:35;17.40;96.70
31038;DHT22;17702;47.590;7.666;2023-06-01T06:25:01;17.50;96.80
31038;DHT22;17702;47.590;7.666;2023-06-01T06:27:26;17.60;97.30
31038;DHT22;17702;47.590;7.666;2023-06-01T06:29:52;17.70;97.70
31038;DHT22;17702;47.590;7.666;2023-06-01T06:32:17;17.80;96.30
31038;DHT22;17702;47.590;7.666;2023-06-01T06:34:45;17.90;96.90
31038;DHT22;17702;47.590;7.666;2023-06-01T06:37:10;18.00;96.00
31038;DHT22;17702;47.590;7.666;2023-06-01T06:39:36;18.20;95.90
31038;DHT22;17702;47.590;7.666;2023-06-01T06:42:03;18.40;92.40
31038;DHT22;17702;47.590;7.666;2023-06-01T06:44:28;18.50;91.80
31038;DHT22;17702;47.590;7.666;2023-06-01T06:46:54;18.70;91.40
31038;DHT22;17702;47.590;7.666;2023-06-01T06:49:20;18.80;92.10
31038;DHT22;17702;47.590;7.666;2023-06-01T06:51:45;19.00;92.20
31038;DHT22;17702;47.590;7.666;2023-06-01T06:54:11;19.10;93.00
31038;DHT22;17702;47.590;7.666;2023-06-01T06:56:37;19.30;89.60
31038;DHT22;17702;47.590;7.666;2023-06-01T06:59:02;19.40;85.50
31038;DHT22;17702;47.590;7.666;2023-06-01T07:01:28;19.50;86.80
31038;DHT22;17702;47.590;7.666;2023-06-01T07:03:54;19.70;80.70
31038;DHT22;17702;47.590;7.666;2023-06-01T07:06:20;19.80;82.30
31038;DHT22;17702;47.590;7.666;2023-06-01T07:08:46;19.90;79.90
31038;DHT22;17702;47.590;7.666;2023-06-01T07:11:12;20.10;79.30
31038;DHT22;17702;47.590;7.666;2023-06-01T07:13:37;20.20;76.50
31038;DHT22;17702;47.590;7.666;2023-06-01T07:16:03;20.30;74.90
31038;DHT22;17702;47.590;7.666;2023-06-01T07:18:30;20.40;73.40
31038;DHT22;17702;47.590;7.666;2023-06-01T07:20:55;20.50;75.80
31038;DHT22;17702;47.590;7.666;2023-06-01T07:23:21;20.60;76.00
31038;DHT22;17702;47.590;7.666;2023-06-01T07:25:46;20.70;73.90
31038;DHT22;17702;47.590;7.666;2023-06-01T07:28:12;20.80;71.70
31038;DHT22;17702;47.590;7.666;2023-06-01T07:30:38;20.90;70.80
31038;DHT22;17702;47.590;7.666;2023-06-01T07:33:04;21.00;72.00
31038;DHT22;17702;47.590;7.666;2023-06-01T07:35:29;21.10;70.10
31038;DHT22;17702;47.590;7.666;2023-06-01T07:37:55;21.30;71.20
31038;DHT22;17702;47.590;7.666;2023-06-01T07:40:21;21.40;69.80
31038;DHT22;17702;47.590;7.666;2023-06-01T07:42:46;21.50;69.00
31038;DHT22;17702;47.590;7.666;2023-06-01T07:45:12;21.50;69.30
31038;DHT22;17702;47.590;7.666;2023-06-01T07:47:38;21.60;71.30
31038;DHT22;17702;47.590;7.666;2023-06-01T07:50:04;21.70;68.30
31038;DHT22;17702;47.590;7.666;2023-06-01T07:52:30;21.80;67.20
31038;DHT22;17702;47.590;7.666;2023-06-01T07:54:56;21.80;67.40
31038;DHT22;17702;47.590;7.666;2023-06-01T07:57:22;21.90;67.00
31038;DHT22;17702;47.590;7.666;2023-06-01T07:59:47;22.00;65.50
31038;DHT22;17702;47.590;7.666;2023-06-01T08:02:12;22.10;65.50
31038;DHT22;17702;47.590;7.666;2023-06-01T08:04:39;22.20;65.60
31038;DHT22;17702;47.590;7.666;2023-06-01T08:07:04;22.30;65.30
31038;DHT22;17702;47.590;7.666;2023-06-01T08:09:31;22.40;64.90
31038;DHT22;17702;47.590;7.666;2023-06-01T08:11:57;22.40;63.60
31038;DHT22;17702;47.590;7.666;2023-06-01T08:14:23;22.60;65.90
31038;DHT22;17702;47.590;7.666;2023-06-01T08:16:48;22.70;63.10
31038;DHT22;17702;47.590;7.666;2023-06-01T08:19:14;22.90;62.80
31038;DHT22;17702;47.590;7.666;2023-06-01T08:21:39;23.00;61.90
31038;DHT22;17702;47.590;7.666;2023-06-01T08:24:06;23.20;61.10
31038;DHT22;17702;47.590;7.666;2023-06-01T08:26:33;23.30;60.60
31038;DHT22;17702;47.590;7.666;2023-06-01T08:29:00;23.30;61.00
31038;DHT22;17702;47.590;7.666;2023-06-01T08:31:25;23.40;59.30
31038;DHT22;17702;47.590;7.666;2023-06-01T08:33:51;23.30;59.60
31038;DHT22;17702;47.590;7.666;2023-06-01T08:36:18;23.30;59.00
31038;DHT22;17702;47.590;7.666;2023-06-01T08:38:44;23.40;59.10
31038;DHT22;17702;47.590;7.666;2023-06-01T08:43:54;23.60;59.90
31038;DHT22;17702;47.590;7.666;2023-06-01T08:46:21;23.80;60.10
31038;DHT22;17702;47.590;7.666;2023-06-01T08:48:47;23.90;58.90
31038;DHT22;17702;47.590;7.666;2023-06-01T08:51:13;24.00;58.30
31038;DHT22;17702;47.590;7.666;2023-06-01T08:53:39;24.20;56.90
31038;DHT22;17702;47.590;7.666;2023-06-01T08:56:07;24.20;56.20
31038;DHT22;17702;47.590;7.666;2023-06-01T08:58:33;24.20;55.10
31038;DHT22;17702;47.590;7.666;2023-06-01T09:00:58;24.10;54.30
31038;DHT22;17702;47.590;7.666;2023-06-01T09:03:26;24.10;54.70
31038;DHT22;17702;47.590;7.666;2023-06-01T09:05:51;24.10;57.50
31038;DHT22;17702;47.590;7.666;2023-06-01T09:08:17;24.30;56.00
31038;DHT22;17702;47.590;7.666;2023-06-01T09:10:43;24.50;58.70
31038;DHT22;17702;47.590;7.666;2023-06-01T09:13:08;24.60;54.30
31038;DHT22;17702;47.590;7.666;2023-06-01T09:15:34;24.80;55.60
31038;DHT22;17702;47.590;7.666;2023-06-01T09:18:06;24.90;53.40
31038;DHT22;17702;47.590;7.666;2023-06-01T09:20:32;24.90;53.70
31038;DHT22;17702;47.590;7.666;2023-06-01T09:22:58;25.00;53.60
31038;DHT22;17702;47.590;7.666;2023-06-01T09:25:24;25.00;53.60
31038;DHT22;17702;47.590;7.666;2023-06-01T09:27:52;25.10;55.20
31038;DHT22;17702;47.590;7.666;2023-06-01T09:30:19;25.20;53.90
31038;DHT22;17702;47.590;7.666;2023-06-01T09:32:44;25.30;53.60
31038;DHT22;17702;47.590;7.666;2023-06-01T09:35:13;25.40;52.80
31038;DHT22;17702;47.590;7.666;2023-06-01T09:37:39;25.30;51.10
31038;DHT22;17702;47.590;7.666;2023-06-01T09:40:18;25.30;51.40
31038;DHT22;17702;47.590;7.666;2023-06-01T09:42:44;25.50;53.20
31038;DHT22;17702;47.590;7.666;2023-06-01T09:45:18;25.70;51.20
31038;DHT22;17702;47.590;7.666;2023-06-01T09:47:44;25.70;51.60
31038;DHT22;17702;47.590;7.666;2023-06-01T09:50:10;25.70;52.10
31038;DHT22;17702;47.590;7.666;2023-06-01T09:52:36;25.80;52.10
31038;DHT22;17702;47.590;7.666;2023-06-01T09:55:05;25.90;49.20
31038;DHT22;17702;47.590;7.666;2023-06-01T09:57:31;25.90;49.90
31038;DHT22;17702;47.590;7.666;2023-06-01T09:59:57;26.00;51.10
31038;DHT22;17702;47.590;7.666;2023-06-01T10:02:23;26.20;52.60
31038;DHT22;17702;47.590;7.666;2023-06-01T10:04:56;26.40;51.50
31038;DHT22;17702;47.590;7.666;2023-06-01T10:07:28;26.50;49.70
31038;DHT22;17702;47.590;7.666;2023-06-01T10:09:54;26.70;51.40
31038;DHT22;17702;47.590;7.666;2023-06-01T10:12:21;26.80;50.00
31038;DHT22;17702;47.590;7.666;2023-06-01T10:14:47;26.80;49.10
31038;DHT22;17702;47.590;7.666;2023-06-01T10:17:13;26.90;51.40
31038;DHT22;17702;47.590;7.666;2023-06-01T10:19:41;27.10;48.60
31038;DHT22;17702;47.590;7.666;2023-06-01T10:22:07;27.00;48.20
31038;DHT22;17702;47.590;7.666;2023-06-01T10:24:33;26.90;50.50
31038;DHT22;17702;47.590;7.666;2023-06-01T10:29:30;27.10;50.10
31038;DHT22;17702;47.590;7.666;2023-06-01T10:31:56;27.20;49.00
31038;DHT22;17702;47.590;7.666;2023-06-01T10:39:33;27.50;45.40
31038;DHT22;17702;47.590;7.666;2023-06-01T10:47:06;27.40;44.30
31038;DHT22;17702;47.590;7.666;2023-06-01T10:57:36;27.40;45.90
31038;DHT22;17702;47.590;7.666;2023-06-01T11:02:46;27.50;45.10
31038;DHT22;17702;47.590;7.666;2023-06-01T11:07:57;27.30;46.40
31038;DHT22;17702;47.590;7.666;2023-06-01T11:13:11;27.70;47.90
31038;DHT22;17702;47.590;7.666;2023-06-01T11:15:36;27.80;46.40
31038;DHT22;17702;47.590;7.666;2023-06-01T11:20:48;27.80;45.50
31038;DHT22;17702;47.590;7.666;2023-06-01T11:23:14;27.80;45.40
31038;DHT22;17702;47.590;7.666;2023-06-01T11:25:40;27.70;45.90
31038;DHT22;17702;47.590;7.666;2023-06-01T11:28:07;27.70;46.20
31038;DHT22;17702;47.590;7.666;2023-06-01T11:30:34;27.80;46.40
31038;DHT22;17702;47.590;7.666;2023-06-01T11:33:00;27.90;46.70
31038;DHT22;17702;47.590;7.666;2023-06-01T11:35:27;28.00;46.40
31038;DHT22;17702;47.590;7.666;2023-06-01T11:37:54;28.10;46.30
31038;DHT22;17702;47.590;7.666;2023-06-01T11:40:20;28.10;45.90
31038;DHT22;17702;47.590;7.666;2023-06-01T11:42:46;28.10;45.50
31038;DHT22;17702;47.590;7.666;2023-06-01T11:45:14;28.20;47.60
31038;DHT22;17702;47.590;7.666;2023-06-01T11:47:40;28.30;46.00
31038;DHT22;17702;47.590;7.666;2023-06-01T11:50:07;28.40;45.70
31038;DHT22;17702;47.590;7.666;2023-06-01T11:52:44;28.50;47.40
31038;DHT22;17702;47.590;7.666;2023-06-01T11:55:11;28.60;45.00
31038;DHT22;17702;47.590;7.666;2023-06-01T11:57:39;28.50;46.30
31038;DHT22;17702;47.590;7.666;2023-06-01T12:00:05;28.70;47.20
31038;DHT22;17702;47.590;7.666;2023-06-01T12:02:37;28.70;45.20
31038;DHT22;17702;47.590;7.666;2023-06-01T12:05:04;28.70;44.80
31038;DHT22;17702;47.590;7.666;2023-06-01T12:07:48;28.60;46.10
31038;DHT22;17702;47.590;7.666;2023-06-01T12:10:16;28.60;46.70
31038;DHT22;17702;47.590;7.666;2023-06-01T12:12:42;28.70;47.50
31038;DHT22;17702;47.590;7.666;2023-06-01T12:15:11;28.90;46.60
31038;DHT22;17702;47.590;7.666;2023-06-01T12:20:11;29.10;46.00
31038;DHT22;17702;47.590;7.666;2023-06-01T12:22:36;29.00;44.90
31038;DHT22;17702;47.590;7.666;2023-06-01T12:25:06;29.10;46.30
31038;DHT22;17702;47.590;7.666;2023-06-01T12:27:33;29.10;47.90
31038;DHT22;17702;47.590;7.666;2023-06-01T12:30:01;29.10;47.40
31038;DHT22;17702;47.590;7.666;2023-06-01T12:32:37;29.20;46.50
31038;DHT22;17702;47.590;7.666;2023-06-01T12:35:05;29.20;45.80
31038;DHT22;17702;47.590;7.666;2023-06-01T12:37:32;29.10;46.30
31038;DHT22;17702;47.590;7.666;2023-06-01T12:39:57;29.10;48.30
31038;DHT22;17702;47.590;7.666;2023-06-01T12:42:34;29.10;46.60
31038;DHT22;17702;47.590;7.666;2023-06-01T12:45:03;29.10;46.30
31038;DHT22;17702;47.590;7.666;2023-06-01T12:47:41;29.00;47.00
31038;DHT22;17702;47.590;7.666;2023-06-01T12:50:10;29.10;47.70
31038;DHT22;17702;47.590;7.666;2023-06-01T12:52:37;29.20;47.50
31038;DHT22;17702;47.590;7.666;2023-06-01T12:55:03;29.10;47.40
31038;DHT22;17702;47.590;7.666;2023-06-01T12:57:30;29.10;46.30
31038;DHT22;17702;47.590;7.666;2023-06-01T12:59:56;29.10;48.20
31038;DHT22;17702;47.590;7.666;2023-06-01T13:02:21;29.10;48.30
31038;DHT22;17702;47.590;7.666;2023-06-01T13:04:47;29.10;48.80
31038;DHT22;17702;47.590;7.666;2023-06-01T13:07:12;29.20;48.00
31038;DHT22;17702;47.590;7.666;2023-06-01T13:09:38;29.10;47.50
31038;DHT22;17702;47.590;7.666;2023-06-01T13:12:03;29.10;47.20
31038;DHT22;17702;47.590;7.666;2023-06-01T13:14:29;29.10;45.80
31038;DHT22;17702;47.590;7.666;2023-06-01T13:16:55;29.00;46.00
31038;DHT22;17702;47.590;7.666;2023-06-01T13:19:20;28.90;45.30
31038;DHT22;17702;47.590;7.666;2023-06-01T13:21:46;28.80;46.20
31038;DHT22;17702;47.590;7.666;2023-06-01T13:24:12;28.70;46.90
31038;DHT22;17702;47.590;7.666;2023-06-01T13:26:38;28.70;46.20
31038;DHT22;17702;47.590;7.666;2023-06-01T13:29:03;28.70;46.10
31038;DHT22;17702;47.590;7.666;2023-06-01T13:31:32;28.60;44.70
31038;DHT22;17702;47.590;7.666;2023-06-01T13:33:58;28.60;45.90
31038;DHT22;17702;47.590;7.666;2023-06-01T13:36:24;28.50;48.30
31038;DHT22;17702;47.590;7.666;2023-06-01T13:38:49;28.60;48.00
31038;DHT22;17702;47.590;7.666;2023-06-01T13:41:15;28.60;47.20
31038;DHT22;17702;47.590;7.666;2023-06-01T13:43:40;28.60;46.00
31038;DHT22;17702;47.590;7.666;2023-06-01T13:46:07;28.60;46.90
31038;DHT22;17702;47.590;7.666;2023-06-01T13:48:34;28.60;47.40
31038;DHT22;17702;47.590;7.666;2023-06-01T13:51:00;28.70;48.90
31038;DHT22;17702;47.590;7.666;2023-06-01T13:53:26;28.70;48.50
31038;DHT22;17702;47.590;7.666;2023-06-01T13:55:51;28.70;50.30
31038;DHT22;17702;47.590;7.666;2023-06-01T13:58:17;28.70;45.40
31038;DHT22;17702;47.590;7.666;2023-06-01T14:00:42;28.60;47.10
31038;DHT22;17702;47.590;7.666;2023-06-01T14:03:08;28.60;49.30
31038;DHT22;17702;47.590;7.666;2023-06-01T14:05:33;28.60;49.40
31038;DHT22;17702;47.590;7.666;2023-06-01T14:07:59;28.60;48.40
31038;DHT22;17702;47.590;7.666;2023-06-01T14:10:24;28.50;46.90
31038;DHT22;17702;47.590;7.666;2023-06-01T14:12:50;28.50;49.00
31038;DHT22;17702;47.590;7.666;2023-06-01T14:15:15;28.50;48.80
31038;DHT22;17702;47.590;7.666;2023-06-01T14:17:41;28.60;48.10
31038;DHT22;17702;47.590;7.666;2023-06-01T14:20:07;28.60;46.50
31038;DHT22;17702;47.590;7.666;2023-06-01T14:22:33;28.60;48.00
31038;DHT22;17702;47.590;7.666;2023-06-01T14:24:59;28.60;48.10
31038;DHT22;17702;47.590;7.666;2023-06-01T14:27:24;28.60;49.50
31038;DHT22;17702;47.590;7.666;2023-06-01T14:29:50;28.40;46.80
31038;DHT22;17702;47.590;7.666;2023-06-01T14:32:15;28.40;47.80
31038;DHT22;17702;47.590;7.666;2023-06-01T14:34:40;28.30;48.70
31038;DHT22;17702;47.590;7.666;2023-06-01T14:37:06;28.30;48.80
31038;DHT22;17702;47.590;7.666;2023-06-01T14:39:35;28.30;47.80
31038;DHT22;17702;47.590;7.666;2023-06-01T14:42:01;28.30;48.90
31038;DHT22;17702;47.590;7.666;2023-06-01T14:44:26;28.40;48.70
31038;DHT22;17702;47.590;7.666;2023-06-01T14:46:52;28.40;49.80
31038;DHT22;17702;47.590;7.666;2023-06-01T14:49:17;28.40;47.10
31038;DHT22;17702;47.590;7.666;2023-06-01T14:51:43;28.40;49.20
31038;DHT22;17702;47.590;7.666;2023-06-01T14:54:08;28.40;50.30
31038;DHT22;17702;47.590;7.666;2023-06-01T14:56:34;28.30;48.40
31038;DHT22;17702;47.590;7.666;2023-06-01T14:58:59;28.30;48.30
31038;DHT22;17702;47.590;7.666;2023-06-01T15:01:25;28.40;47.20
31038;DHT22;17702;47.590;7.666;2023-06-01T15:03:50;28.30;47.90
31038;DHT22;17702;47.590;7.666;2023-06-01T15:06:16;28.30;48.50
31038;DHT22;17702;47.590;7.666;2023-06-01T15:08:41;28.30;48.40
31038;DHT22;17702;47.590;7.666;2023-06-01T15:11:07;28.30;48.30
31038;DHT22;17702;47.590;7.666;2023-06-01T15:13:32;28.30;49.10
31038;DHT22;17702;47.590;7.666;2023-06-01T15:15:58;28.30;49.20
31038;DHT22;17702;47.590;7.666;2023-06-01T15:18:23;28.20;47.40
31038;DHT22;17702;47.590;7.666;2023-06-01T15:20:49;28.10;48.80
31038;DHT22;17702;47.590;7.666;2023-06-01T15:23:17;28.00;48.30
31038;DHT22;17702;47.590;7.666;2023-06-01T15:25:44;28.00;47.10
31038;DHT22;17702;47.590;7.666;2023-06-01T15:28:09;27.90;49.30
31038;DHT22;17702;47.590;7.666;2023-06-01T15:30:35;27.90;48.10
31038;DHT22;17702;47.590;7.666;2023-06-01T15:33:02;27.80;47.60
31038;DHT22;17702;47.590;7.666;2023-06-01T15:35:28;27.80;47.70
31038;DHT22;17702;47.590;7.666;2023-06-01T15:37:53;27.80;47.90
31038;DHT22;17702;47.590;7.666;2023-06-01T15:40:19;27.80;48.10
31038;DHT22;17702;47.590;7.666;2023-06-01T15:42:44;27.70;48.50
31038;DHT22;17702;47.590;7.666;2023-06-01T15:45:10;27.60;49.90
31038;DHT22;17702;47.590;7.666;2023-06-01T15:47:36;27.60;48.90
31038;DHT22;17702;47.590;7.666;2023-06-01T15:50:01;27.50;49.10
31038;DHT22;17702;47.590;7.666;2023-06-01T15:52:29;27.40;49.90
31038;DHT22;17702;47.590;7.666;2023-06-01T15:54:55;27.40;49.70
31038;DHT22;17702;47.590;7.666;2023-06-01T15:57:21;27.40;50.30
31038;DHT22;17702;47.590;7.666;2023-06-01T15:59:46;27.30;51.10
31038;DHT22;17702;47.590;7.666;2023-06-01T16:02:12;27.30;50.60
31038;DHT22;17702;47.590;7.666;2023-06-01T16:04:37;27.20;50.90
31038;DHT22;17702;47.590;7.666;2023-06-01T16:07:03;27.10;51.00
31038;DHT22;17702;47.590;7.666;2023-06-01T16:09:28;27.10;49.10